sensor_id;sensor_type;location;lat;lon;timestamp;temperature;humidity
69533;DHT22;56729;52.036;5.332;2023-02-28T00:00:09;1.40;99.90
69533;DHT22;56729;52.036;5.332;2023-02-28T00:01:13;1.40;99.90
69533;DHT22;56729;52.036;5.332;2023-02-28T00:02:15;1.40;99.90
69533;DHT22;56729;52.036;5.332;2023-02-28T00:03:19;1.40;99.90
69533;DHT22;56729;52.036;5.332;2023-02-28T00:04:21;1.40;99.90
69533;DHT22;56729;52.036;5.332;2023-02-28T00:05:24;1.40;99.90
69533;DHT22;56729;52.036;5.332;2023-02-28T00:06:26;1.40;99.90
69533;DHT22;56729;52.036;5.332;2023-02-28T00:07:29;1.40;99.90
69533;DHT22;56729;52.036;5.332;2023-02-28T00:08:31;1.40;99.90
69533;DHT22;56729;52.036;5.332;2023-02-28T00:09:33;1.40;99.90
69533;DHT22;56729;52.036;5.332;2023-02-28T00:10:35;1.40;99.90
69533;DHT22;56729;52.036;5.332;2023-02-28T00:11:37;1.40;99.90
69533;DHT22;56729;52.036;5.332;2023-02-28T00:12:39;1.40;99.90
69533;DHT22;56729;52.036;5.332;2023-02-28T00:13:44;1.40;99.90
69533;DHT22;56729;52.036;5.332;2023-02-28T00:14:48;1.40;99.90
69533;DHT22;56729;52.036;5.332;2023-02-28T00:15:59;1.40;99.90
69533;DHT22;56729;52.036;5.332;2023-02-28T00:17:01;1.50;99.90
69533;DHT22;56729;52.036;5.332;2023-02-28T00:18:03;1.50;99.90
69533;DHT22;56729;52.036;5.332;2023-02-28T00:19:05;1.50;99.90
69533;DHT22;56729;52.036;5.332;2023-02-28T00:20:08;1.50;99.90
69533;DHT22;56729;52.036;5.332;2023-02-28T00:21:11;1.50;99.90
69533;DHT22;56729;52.036;5.332;2023-02-28T00:22:13;1.50;99.90
69533;DHT22;56729;52.036;5.332;2023-02-28T00:23:15;1.50;99.90
69533;DHT22;56729;52.036;5.332;2023-02-28T00:24:17;1.60;99.90
69533;DHT22;56729;52.036;5.332;2023-02-28T00:25:22;1.60;99.90
69533;DHT22;56729;52.036;5.332;2023-02-28T00:26:24;1.60;99.90
69533;DHT22;56729;52.036;5.332;2023-02-28T00:27:26;1.60;99.90
69533;DHT22;56729;52.036;5.332;2023-02-28T00:28:27;1.60;99.90
69533;DHT22;56729;52.036;5.332;2023-02-28T00:29:29;1.60;99.90
69533;DHT22;56729;52.036;5.332;2023-02-28T00:30:31;1.70;99.90
69533;DHT22;56729;52.036;5.332;2023-02-28T00:31:33;1.70;99.90
69533;DHT22;56729;52.036;5.332;2023-02-28T00:32:35;1.70;99.90
69533;DHT22;56729;52.036;5.332;2023-02-28T00:33:37;1.70;99.90
69533;DHT22;56729;52.036;5.332;2023-02-28T00:34:39;1.70;99.90
69533;DHT22;56729;52.036;5.332;2023-02-28T00:35:42;1.80;99.90
69533;DHT22;56729;52.036;5.332;2023-02-28T00:36:47;1.80;99.90
69533;DHT22;56729;52.036;5.332;2023-02-28T00:37:52;1.80;99.90
69533;DHT22;56729;52.036;5.332;2023-02-28T00:38:54;1.80;99.90
69533;DHT22;56729;52.036;5.332;2023-02-28T00:39:56;1.90;99.90
69533;DHT22;56729;52.036;5.332;2023-02-28T00:40:58;1.90;99.90
69533;DHT22;56729;52.036;5.332;2023-02-28T00:42:00;1.90;99.90
69533;DHT22;56729;52.036;5.332;2023-02-28T00:43:03;1.90;99.90
69533;DHT22;56729;52.036;5.332;2023-02-28T00:44:06;2.00;99.90
69533;DHT22;56729;52.036;5.332;2023-02-28T00:45:08;2.00;99.90
69533;DHT22;56729;52.036;5.332;2023-02-28T00:46:12;2.00;99.90
69533;DHT22;56729;52.036;5.332;2023-02-28T00:47:15;2.00;99.90
69533;DHT22;56729;52.036;5.332;2023-02-28T00:48:18;2.10;99.90
69533;DHT22;56729;52.036;5.332;2023-02-28T00:49:20;2.10;99.90
69533;DHT22;56729;52.036;5.332;2023-02-28T00:50:22;2.10;99.90
69533;DHT22;56729;52.036;5.332;2023-02-28T00:51:24;2.10;99.90
69533;DHT22;56729;52.036;5.332;2023-02-28T00:52:26;2.20;99.90
69533;DHT22;56729;52.036;5.332;2023-02-28T00:53:29;2.20;99.90
69533;DHT22;56729;52.036;5.332;2023-02-28T00:54:31;2.20;99.90
69533;DHT22;56729;52.036;5.332;2023-02-28T00:55:33;2.20;99.90
69533;DHT22;56729;52.036;5.332;2023-02-28T00:56:35;2.30;99.90
69533;DHT22;56729;52.036;5.332;2023-02-28T00:57:38;2.30;99.90
69533;DHT22;56729;52.036;5.332;2023-02-28T00:58:40;2.30;99.90
69533;DHT22;56729;52.036;5.332;2023-02-28T00:59:43;2.30;99.90
69533;DHT22;56729;52.036;5.332;2023-02-28T01:00:47;2.30;99.90
69533;DHT22;56729;52.036;5.332;2023-02-28T01:01:52;2.30;99.90
69533;DHT22;56729;52.036;5.332;2023-02-28T01:02:56;2.40;99.90
69533;DHT22;56729;52.036;5.332;2023-02-28T01:03:57;2.40;99.90
69533;DHT22;56729;52.036;5.332;2023-02-28T01:04:59;2.40;99.90
69533;DHT22;56729;52.036;5.332;2023-02-28T01:06:04;2.40;99.90
69533;DHT22;56729;52.036;5.332;2023-02-28T01:07:06;2.40;99.90
69533;DHT22;56729;52.036;5.332;2023-02-28T01:08:09;2.50;99.90
69533;DHT22;56729;52.036;5.332;2023-02-28T01:09:11;2.50;99.90
69533;DHT22;56729;52.036;5.332;2023-02-28T01:10:13;2.50;99.90
69533;DHT22;56729;52.036;5.332;2023-02-28T01:11:16;2.50;99.90
69533;DHT22;56729;52.036;5.332;2023-02-28T01:12:18;2.50;99.90
69533;DHT22;56729;52.036;5.332;2023-02-28T01:13:21;2.50;99.90
69533;DHT22;56729;52.036;5.332;2023-02-28T01:14:24;2.50;99.90
69533;DHT22;56729;52.036;5.332;2023-02-28T01:15:26;2.60;99.90
69533;DHT22;56729;52.036;5.332;2023-02-28T01:16:28;2.60;99.90
69533;DHT22;56729;52.036;5.332;2023-02-28T01:17:30;2.60;99.90
69533;DHT22;56729;52.036;5.332;2023-02-28T01:18:35;2.60;99.90
69533;DHT22;56729;52.036;5.332;2023-02-28T01:19:37;2.70;99.90
69533;DHT22;56729;52.036;5.332;2023-02-28T01:20:39;2.70;99.90
69533;DHT22;56729;52.036;5.332;2023-02-28T01:21:41;2.70;99.90
69533;DHT22;56729;52.036;5.332;2023-02-28T01:22:42;2.70;99.90
69533;DHT22;56729;52.036;5.332;2023-02-28T01:23:45;2.70;99.90
69533;DHT22;56729;52.036;5.332;2023-02-28T01:24:48;2.80;99.90
69533;DHT22;56729;52.036;5.332;2023-02-28T01:25:50;2.80;99.90
69533;DHT22;56729;52.036;5.332;2023-02-28T01:26:53;2.80;99.90
69533;DHT22;56729;52.036;5.332;2023-02-28T01:27:55;2.80;99.90
69533;DHT22;56729;52.036;5.332;2023-02-28T01:28:58;2.80;99.90
69533;DHT22;56729;52.036;5.332;2023-02-28T01:30:00;2.80;99.90
69533;DHT22;56729;52.036;5.332;2023-02-28T01:31:02;2.80;99.90
69533;DHT22;56729;52.036;5.332;2023-02-28T01:32:03;2.90;99.90
69533;DHT22;56729;52.036;5.332;2023-02-28T01:33:05;2.90;99.90
69533;DHT22;56729;52.036;5.332;2023-02-28T01:34:08;2.90;99.90
69533;DHT22;56729;52.036;5.332;2023-02-28T01:35:12;2.90;99.90
69533;DHT22;56729;52.036;5.332;2023-02-28T01:36:16;2.90;99.90
69533;DHT22;56729;52.036;5.332;2023-02-28T01:37:18;2.90;99.90
69533;DHT22;56729;52.036;5.332;2023-02-28T01:38:20;2.90;99.90
69533;DHT22;56729;52.036;5.332;2023-02-28T01:39:25;2.90;99.90
69533;DHT22;56729;52.036;5.332;2023-02-28T01:40:27;3.00;99.90
69533;DHT22;56729;52.036;5.332;2023-02-28T01:41:33;3.00;99.90
69533;DHT22;56729;52.036;5.332;2023-02-28T01:42:35;3.00;99.90
69533;DHT22;56729;52.036;5.332;2023-02-28T01:44:57;3.00;99.90
69533;DHT22;56729;52.036;5.332;2023-02-28T01:46:00;3.00;99.90
69533;DHT22;56729;52.036;5.332;2023-02-28T01:47:02;3.00;99.90
69533;DHT22;56729;52.036;5.332;2023-02-28T01:48:07;3.00;99.90
69533;DHT22;56729;52.036;5.332;2023-02-28T01:49:16;3.00;99.90
69533;DHT22;56729;52.036;5.332;2023-02-28T01:50:21;3.10;99.90
69533;DHT22;56729;52.036;5.332;2023-02-28T01:51:42;3.00;99.90
69533;DHT22;56729;52.036;5.332;2023-02-28T01:52:54;3.10;99.90
69533;DHT22;56729;52.036;5.332;2023-02-28T01:54:03;3.00;99.90
69533;DHT22;56729;52.036;5.332;2023-02-28T01:55:07;3.10;99.90
69533;DHT22;56729;52.036;5.332;2023-02-28T01:56:12;3.10;99.90
69533;DHT22;56729;52.036;5.332;2023-02-28T01:57:17;3.10;99.90
69533;DHT22;56729;52.036;5.332;2023-02-28T01:58:21;3.10;99.90
69533;DHT22;56729;52.036;5.332;2023-02-28T01:59:45;3.10;99.90
69533;DHT22;56729;52.036;5.332;2023-02-28T02:00:52;3.10;99.90
69533;DHT22;56729;52.036;5.332;2023-02-28T02:01:55;3.20;99.90
69533;DHT22;56729;52.036;5.332;2023-02-28T02:02:59;3.10;99.90
69533;DHT22;56729;52.036;5.332;2023-02-28T02:04:03;3.10;99.90
69533;DHT22;56729;52.036;5.332;2023-02-28T02:05:14;3.20;99.90
69533;DHT22;56729;52.036;5.332;2023-02-28T02:06:16;3.20;99.90
69533;DHT22;56729;52.036;5.332;2023-02-28T02:07:19;3.20;99.90
69533;DHT22;56729;52.036;5.332;2023-02-28T02:08:26;3.20;99.90
69533;DHT22;56729;52.036;5.332;2023-02-28T02:09:29;3.20;99.90
69533;DHT22;56729;52.036;5.332;2023-02-28T02:10:45;3.20;99.90
69533;DHT22;56729;52.036;5.332;2023-02-28T02:11:50;3.20;99.90
69533;DHT22;56729;52.036;5.332;2023-02-28T02:13:29;3.30;99.90
69533;DHT22;56729;52.036;5.332;2023-02-28T02:15:00;3.30;99.90
69533;DHT22;56729;52.036;5.332;2023-02-28T02:17:33;3.30;99.90
69533;DHT22;56729;52.036;5.332;2023-02-28T02:18:52;3.30;99.90
69533;DHT22;56729;52.036;5.332;2023-02-28T02:21:07;3.30;99.90
69533;DHT22;56729;52.036;5.332;2023-02-28T02:26:30;3.30;99.90
69533;DHT22;56729;52.036;5.332;2023-02-28T02:30:31;3.30;99.90
69533;DHT22;56729;52.036;5.332;2023-02-28T02:33:06;3.30;99.90
69533;DHT22;56729;52.036;5.332;2023-02-28T02:35:53;3.40;99.90
69533;DHT22;56729;52.036;5.332;2023-02-28T02:37:27;3.30;99.90
69533;DHT22;56729;52.036;5.332;2023-02-28T02:39:58;3.30;99.90
69533;DHT22;56729;52.036;5.332;2023-02-28T02:41:12;3.40;99.90
69533;DHT22;56729;52.036;5.332;2023-02-28T02:42:27;3.30;99.90
69533;DHT22;56729;52.036;5.332;2023-02-28T02:43:34;3.40;99.90
69533;DHT22;56729;52.036;5.332;2023-02-28T02:44:43;3.30;99.90
69533;DHT22;56729;52.036;5.332;2023-02-28T02:45:55;3.30;99.90
69533;DHT22;56729;52.036;5.332;2023-02-28T02:47:09;3.30;99.90
69533;DHT22;56729;52.036;5.332;2023-02-28T02:48:16;3.40;99.90
69533;DHT22;56729;52.036;5.332;2023-02-28T02:49:27;3.40;99.90
69533;DHT22;56729;52.036;5.332;2023-02-28T02:50:37;3.40;99.90
69533;DHT22;56729;52.036;5.332;2023-02-28T02:51:40;3.40;99.90
69533;DHT22;56729;52.036;5.332;2023-02-28T02:52:47;3.40;99.90
69533;DHT22;56729;52.036;5.332;2023-02-28T02:54:14;3.40;99.90
69533;DHT22;56729;52.036;5.332;2023-02-28T02:55:18;3.40;99.90
69533;DHT22;56729;52.036;5.332;2023-02-28T02:56:26;3.40;99.90
69533;DHT22;56729;52.036;5.332;2023-02-28T02:57:44;3.40;99.90
69533;DHT22;56729;52.036;5.332;2023-02-28T02:58:49;3.40;99.90
69533;DHT22;56729;52.036;5.332;2023-02-28T02:59:53;3.40;99.90
69533;DHT22;56729;52.036;5.332;2023-02-28T03:01:00;3.40;99.90
69533;DHT22;56729;52.036;5.332;2023-02-28T03:02:09;3.40;99.90
69533;DHT22;56729;52.036;5.332;2023-02-28T03:03:13;3.40;99.90
69533;DHT22;56729;52.036;5.332;2023-02-28T03:04:20;3.40;99.90
69533;DHT22;56729;52.036;5.332;2023-02-28T03:05:29;3.50;99.90
69533;DHT22;56729;52.036;5.332;2023-02-28T03:06:32;3.50;99.90
69533;DHT22;56729;52.036;5.332;2023-02-28T03:07:35;3.50;99.90
69533;DHT22;56729;52.036;5.332;2023-02-28T03:08:38;3.50;99.90
69533;DHT22;56729;52.036;5.332;2023-02-28T03:09:40;3.50;99.90
69533;DHT22;56729;52.036;5.332;2023-02-28T03:10:44;3.50;99.90
69533;DHT22;56729;52.036;5.332;2023-02-28T03:11:52;3.50;99.90
69533;DHT22;56729;52.036;5.332;2023-02-28T03:17:38;3.50;99.90
69533;DHT22;56729;52.036;5.332;2023-02-28T03:23:15;3.50;99.90
69533;DHT22;56729;52.036;5.332;2023-02-28T03:25:27;3.50;99.90
69533;DHT22;56729;52.036;5.332;2023-02-28T03:26:22;3.50;99.90
69533;DHT22;56729;52.036;5.332;2023-02-28T03:27:29;3.50;99.90
69533;DHT22;56729;52.036;5.332;2023-02-28T03:29:52;3.50;99.90
69533;DHT22;56729;52.036;5.332;2023-02-28T03:31:12;3.50;99.90
69533;DHT22;56729;52.036;5.332;2023-02-28T03:33:42;3.50;99.90
69533;DHT22;56729;52.036;5.332;2023-02-28T03:35:02;3.50;99.90
69533;DHT22;56729;52.036;5.332;2023-02-28T03:36:14;3.50;99.90
69533;DHT22;56729;52.036;5.332;2023-02-28T03:37:22;3.50;99.90
69533;DHT22;56729;52.036;5.332;2023-02-28T03:38:29;3.50;99.90
69533;DHT22;56729;52.036;5.332;2023-02-28T03:39:40;3.50;99.90
69533;DHT22;56729;52.036;5.332;2023-02-28T03:40:48;3.50;99.90
69533;DHT22;56729;52.036;5.332;2023-02-28T03:42:20;3.50;99.90
69533;DHT22;56729;52.036;5.332;2023-02-28T03:43:29;3.50;99.90
69533;DHT22;56729;52.036;5.332;2023-02-28T03:44:38;3.60;99.90
69533;DHT22;56729;52.036;5.332;2023-02-28T03:45:41;3.60;99.90
69533;DHT22;56729;52.036;5.332;2023-02-28T03:46:54;3.50;99.90
69533;DHT22;56729;52.036;5.332;2023-02-28T03:48:13;3.60;99.90
69533;DHT22;56729;52.036;5.332;2023-02-28T03:49:24;3.50;99.90
69533;DHT22;56729;52.036;5.332;2023-02-28T03:50:34;3.50;99.90
69533;DHT22;56729;52.036;5.332;2023-02-28T03:51:40;3.50;99.90
69533;DHT22;56729;52.036;5.332;2023-02-28T03:53:04;3.50;99.90
69533;DHT22;56729;52.036;5.332;2023-02-28T03:54:15;3.50;99.90
69533;DHT22;56729;52.036;5.332;2023-02-28T03:55:19;3.50;99.90
69533;DHT22;56729;52.036;5.332;2023-02-28T03:56:27;3.50;99.90
69533;DHT22;56729;52.036;5.332;2023-02-28T03:58:57;3.50;99.90
69533;DHT22;56729;52.036;5.332;2023-02-28T04:00:06;3.50;99.90
69533;DHT22;56729;52.036;5.332;2023-02-28T04:01:20;3.50;99.90
69533;DHT22;56729;52.036;5.332;2023-02-28T04:02:23;3.50;99.90
69533;DHT22;56729;52.036;5.332;2023-02-28T04:03:25;3.50;99.90
69533;DHT22;56729;52.036;5.332;2023-02-28T04:04:27;3.50;99.90
69533;DHT22;56729;52.036;5.332;2023-02-28T04:05:30;3.50;99.90
69533;DHT22;56729;52.036;5.332;2023-02-28T04:06:33;3.50;99.90
69533;DHT22;56729;52.036;5.332;2023-02-28T04:07:37;3.50;99.90
69533;DHT22;56729;52.036;5.332;2023-02-28T04:08:38;3.60;99.90
69533;DHT22;56729;52.036;5.332;2023-02-28T04:09:41;3.60;99.90
69533;DHT22;56729;52.036;5.332;2023-02-28T04:10:46;3.50;99.90
69533;DHT22;56729;52.036;5.332;2023-02-28T04:11:51;3.50;99.90
69533;DHT22;56729;52.036;5.332;2023-02-28T04:12:53;3.50;99.90
69533;DHT22;56729;52.036;5.332;2023-02-28T04:13:55;3.50;99.90
69533;DHT22;56729;52.036;5.332;2023-02-28T04:14:57;3.50;99.90
69533;DHT22;56729;52.036;5.332;2023-02-28T04:15:59;3.50;99.90
69533;DHT22;56729;52.036;5.332;2023-02-28T04:17:01;3.50;99.90
69533;DHT22;56729;52.036;5.332;2023-02-28T04:18:03;3.50;99.90
69533;DHT22;56729;52.036;5.332;2023-02-28T04:19:06;3.50;99.90
69533;DHT22;56729;52.036;5.332;2023-02-28T04:20:09;3.50;99.90
69533;DHT22;56729;52.036;5.332;2023-02-28T04:21:11;3.50;99.90
69533;DHT22;56729;52.036;5.332;2023-02-28T04:22:13;3.40;99.90
69533;DHT22;56729;52.036;5.332;2023-02-28T04:23:15;3.40;99.90
69533;DHT22;56729;52.036;5.332;2023-02-28T04:24:24;3.40;99.90
69533;DHT22;56729;52.036;5.332;2023-02-28T04:25:26;3.40;99.90
69533;DHT22;56729;52.036;5.332;2023-02-28T04:26:33;3.40;99.90
69533;DHT22;56729;52.036;5.332;2023-02-28T04:27:35;3.40;99.90
69533;DHT22;56729;52.036;5.332;2023-02-28T04:28:37;3.40;99.90
69533;DHT22;56729;52.036;5.332;2023-02-28T04:29:41;3.40;99.90
69533;DHT22;56729;52.036;5.332;2023-02-28T04:30:46;3.40;99.90
69533;DHT22;56729;52.036;5.332;2023-02-28T04:31:48;3.40;99.90
69533;DHT22;56729;52.036;5.332;2023-02-28T04:32:50;3.40;99.90
69533;DHT22;56729;52.036;5.332;2023-02-28T04:33:52;3.40;99.90
69533;DHT22;56729;52.036;5.332;2023-02-28T04:34:54;3.40;99.90
69533;DHT22;56729;52.036;5.332;2023-02-28T04:36:04;3.30;99.90
69533;DHT22;56729;52.036;5.332;2023-02-28T04:37:06;3.30;99.90
69533;DHT22;56729;52.036;5.332;2023-02-28T04:38:14;3.30;99.90
69533;DHT22;56729;52.036;5.332;2023-02-28T04:39:18;3.30;99.90
69533;DHT22;56729;52.036;5.332;2023-02-28T04:40:20;3.30;99.90
69533;DHT22;56729;52.036;5.332;2023-02-28T04:41:22;3.30;99.90
69533;DHT22;56729;52.036;5.332;2023-02-28T04:42:24;3.30;99.90
69533;DHT22;56729;52.036;5.332;2023-02-28T04:43:27;3.30;99.90
69533;DHT22;56729;52.036;5.332;2023-02-28T04:44:29;3.30;99.90
69533;DHT22;56729;52.036;5.332;2023-02-28T04:45:31;3.30;99.90
69533;DHT22;56729;52.036;5.332;2023-02-28T04:46:35;3.30;99.90
69533;DHT22;56729;52.036;5.332;2023-02-28T04:47:37;3.30;99.90
69533;DHT22;56729;52.036;5.332;2023-02-28T04:48:40;3.30;99.90
69533;DHT22;56729;52.036;5.332;2023-02-28T04:49:42;3.30;99.90
69533;DHT22;56729;52.036;5.332;2023-02-28T04:50:44;3.30;99.90
69533;DHT22;56729;52.036;5.332;2023-02-28T04:51:46;3.30;99.90
69533;DHT22;56729;52.036;5.332;2023-02-28T04:52:48;3.20;99.90
69533;DHT22;56729;52.036;5.332;2023-02-28T04:53:50;3.20;99.90
69533;DHT22;56729;52.036;5.332;2023-02-28T04:54:52;3.20;99.90
69533;DHT22;56729;52.036;5.332;2023-02-28T04:55:55;3.20;99.90
69533;DHT22;56729;52.036;5.332;2023-02-28T04:56:57;3.20;99.90
69533;DHT22;56729;52.036;5.332;2023-02-28T04:58:00;3.20;99.90
69533;DHT22;56729;52.036;5.332;2023-02-28T04:59:01;3.20;99.90
69533;DHT22;56729;52.036;5.332;2023-02-28T05:00:04;3.20;99.90
69533;DHT22;56729;52.036;5.332;2023-02-28T05:01:29;3.10;99.90
69533;DHT22;56729;52.036;5.332;2023-02-28T05:02:34;3.10;99.90
69533;DHT22;56729;52.036;5.332;2023-02-28T05:03:36;3.10;99.90
69533;DHT22;56729;52.036;5.332;2023-02-28T05:04:38;3.10;99.90
69533;DHT22;56729;52.036;5.332;2023-02-28T05:05:40;3.00;99.90
69533;DHT22;56729;52.036;5.332;2023-02-28T05:06:42;3.00;99.90
69533;DHT22;56729;52.036;5.332;2023-02-28T05:07:44;3.00;99.90
69533;DHT22;56729;52.036;5.332;2023-02-28T05:08:47;3.00;99.90
69533;DHT22;56729;52.036;5.332;2023-02-28T05:09:49;2.90;99.90
69533;DHT22;56729;52.036;5.332;2023-02-28T05:10:50;2.90;99.90
69533;DHT22;56729;52.036;5.332;2023-02-28T05:11:52;2.90;99.90
69533;DHT22;56729;52.036;5.332;2023-02-28T05:12:54;2.90;99.90
69533;DHT22;56729;52.036;5.332;2023-02-28T05:13:56;2.80;99.90
69533;DHT22;56729;52.036;5.332;2023-02-28T05:14:58;2.80;99.90
69533;DHT22;56729;52.036;5.332;2023-02-28T05:15:59;2.80;99.90
69533;DHT22;56729;52.036;5.332;2023-02-28T05:17:01;2.80;99.90
69533;DHT22;56729;52.036;5.332;2023-02-28T05:18:05;2.80;99.90
69533;DHT22;56729;52.036;5.332;2023-02-28T05:19:10;2.80;99.90
69533;DHT22;56729;52.036;5.332;2023-02-28T05:20:12;2.80;99.90
69533;DHT22;56729;52.036;5.332;2023-02-28T05:21:32;2.70;99.90
69533;DHT22;56729;52.036;5.332;2023-02-28T05:22:34;2.70;99.90
69533;DHT22;56729;52.036;5.332;2023-02-28T05:23:36;2.70;99.90
69533;DHT22;56729;52.036;5.332;2023-02-28T05:24:38;2.70;99.90
69533;DHT22;56729;52.036;5.332;2023-02-28T05:25:40;2.70;99.90
69533;DHT22;56729;52.036;5.332;2023-02-28T05:26:42;2.70;99.90
69533;DHT22;56729;52.036;5.332;2023-02-28T05:27:45;2.70;99.90
69533;DHT22;56729;52.036;5.332;2023-02-28T05:28:47;2.70;99.90
69533;DHT22;56729;52.036;5.332;2023-02-28T05:29:48;2.70;99.90
69533;DHT22;56729;52.036;5.332;2023-02-28T05:30:50;2.70;99.90
69533;DHT22;56729;52.036;5.332;2023-02-28T05:31:52;2.70;99.90
69533;DHT22;56729;52.036;5.332;2023-02-28T05:32:54;2.70;99.90
69533;DHT22;56729;52.036;5.332;2023-02-28T05:33:56;2.70;99.90
69533;DHT22;56729;52.036;5.332;2023-02-28T05:34:58;2.70;99.90
69533;DHT22;56729;52.036;5.332;2023-02-28T05:36:00;2.70;99.90
69533;DHT22;56729;52.036;5.332;2023-02-28T05:37:02;2.70;99.90
69533;DHT22;56729;52.036;5.332;2023-02-28T05:38:03;2.70;99.90
69533;DHT22;56729;52.036;5.332;2023-02-28T05:39:06;2.80;99.90
69533;DHT22;56729;52.036;5.332;2023-02-28T05:40:13;2.80;99.90
69533;DHT22;56729;52.036;5.332;2023-02-28T05:41:18;2.80;99.90
69533;DHT22;56729;52.036;5.332;2023-02-28T05:42:21;2.80;99.90
69533;DHT22;56729;52.036;5.332;2023-02-28T05:43:22;2.80;99.90
69533;DHT22;56729;52.036;5.332;2023-02-28T05:44:24;2.80;99.90
69533;DHT22;56729;52.036;5.332;2023-02-28T05:45:26;2.80;99.90
69533;DHT22;56729;52.036;5.332;2023-02-28T05:46:28;2.80;99.90
69533;DHT22;56729;52.036;5.332;2023-02-28T05:47:30;2.80;99.90
69533;DHT22;56729;52.036;5.332;2023-02-28T05:48:34;2.90;99.90
69533;DHT22;56729;52.036;5.332;2023-02-28T05:49:36;2.90;99.90
69533;DHT22;56729;52.036;5.332;2023-02-28T05:50:38;2.90;99.90
69533;DHT22;56729;52.036;5.332;2023-02-28T05:51:40;2.90;99.90
69533;DHT22;56729;52.036;5.332;2023-02-28T05:52:42;2.90;99.90
69533;DHT22;56729;52.036;5.332;2023-02-28T05:53:44;2.90;99.90
69533;DHT22;56729;52.036;5.332;2023-02-28T05:54:46;2.90;99.90
69533;DHT22;56729;52.036;5.332;2023-02-28T05:55:49;3.00;99.90
69533;DHT22;56729;52.036;5.332;2023-02-28T05:56:51;3.00;99.90
69533;DHT22;56729;52.036;5.332;2023-02-28T05:57:52;3.00;99.90
69533;DHT22;56729;52.036;5.332;2023-02-28T05:58:54;3.00;99.90
69533;DHT22;56729;52.036;5.332;2023-02-28T05:59:56;3.00;99.90
69533;DHT22;56729;52.036;5.332;2023-02-28T06:00:59;3.00;99.90
69533;DHT22;56729;52.036;5.332;2023-02-28T06:02:01;3.00;99.90
69533;DHT22;56729;52.036;5.332;2023-02-28T06:03:03;3.00;99.90
69533;DHT22;56729;52.036;5.332;2023-02-28T06:04:08;3.00;99.90
69533;DHT22;56729;52.036;5.332;2023-02-28T06:05:26;2.90;99.90
69533;DHT22;56729;52.036;5.332;2023-02-28T06:06:28;3.00;99.90
69533;DHT22;56729;52.036;5.332;2023-02-28T06:07:31;2.90;99.90
69533;DHT22;56729;52.036;5.332;2023-02-28T06:08:32;3.00;99.90
69533;DHT22;56729;52.036;5.332;2023-02-28T06:09:35;3.00;99.90
69533;DHT22;56729;52.036;5.332;2023-02-28T06:10:37;2.90;99.90
69533;DHT22;56729;52.036;5.332;2023-02-28T06:11:39;2.90;99.90
69533;DHT22;56729;52.036;5.332;2023-02-28T06:12:41;2.90;99.90
69533;DHT22;56729;52.036;5.332;2023-02-28T06:13:43;2.90;99.90
69533;DHT22;56729;52.036;5.332;2023-02-28T06:14:45;2.90;99.90
69533;DHT22;56729;52.036;5.332;2023-02-28T06:15:47;2.90;99.90
69533;DHT22;56729;52.036;5.332;2023-02-28T06:16:48;2.90;99.90
69533;DHT22;56729;52.036;5.332;2023-02-28T06:17:51;2.90;99.90
69533;DHT22;56729;52.036;5.332;2023-02-28T06:18:54;2.90;99.90
69533;DHT22;56729;52.036;5.332;2023-02-28T06:19:59;2.90;99.90
69533;DHT22;56729;52.036;5.332;2023-02-28T06:21:01;2.90;99.90
69533;DHT22;56729;52.036;5.332;2023-02-28T06:22:03;2.90;99.90
69533;DHT22;56729;52.036;5.332;2023-02-28T06:23:04;2.90;99.90
69533;DHT22;56729;52.036;5.332;2023-02-28T06:24:07;2.90;99.90
69533;DHT22;56729;52.036;5.332;2023-02-28T06:25:09;2.80;99.90
69533;DHT22;56729;52.036;5.332;2023-02-28T06:26:11;2.80;99.90
69533;DHT22;56729;52.036;5.332;2023-02-28T06:27:13;2.80;99.90
69533;DHT22;56729;52.036;5.332;2023-02-28T06:28:15;2.80;99.90
69533;DHT22;56729;52.036;5.332;2023-02-28T06:29:17;2.80;99.90
69533;DHT22;56729;52.036;5.332;2023-02-28T06:30:20;2.80;99.90
69533;DHT22;56729;52.036;5.332;2023-02-28T06:31:26;2.80;99.90
69533;DHT22;56729;52.036;5.332;2023-02-28T06:32:31;2.80;99.90
69533;DHT22;56729;52.036;5.332;2023-02-28T06:33:33;2.80;99.90
69533;DHT22;56729;52.036;5.332;2023-02-28T06:34:35;2.80;99.90
69533;DHT22;56729;52.036;5.332;2023-02-28T06:35:37;2.80;99.90
69533;DHT22;56729;52.036;5.332;2023-02-28T06:36:41;2.80;99.90
69533;DHT22;56729;52.036;5.332;2023-02-28T06:37:43;2.80;99.90
69533;DHT22;56729;52.036;5.332;2023-02-28T06:38:45;2.80;99.90
69533;DHT22;56729;52.036;5.332;2023-02-28T06:39:48;2.80;99.90
69533;DHT22;56729;52.036;5.332;2023-02-28T06:40:55;2.80;99.90
69533;DHT22;56729;52.036;5.332;2023-02-28T06:41:58;2.80;99.90
69533;DHT22;56729;52.036;5.332;2023-02-28T06:42:59;2.80;99.90
69533;DHT22;56729;52.036;5.332;2023-02-28T06:44:01;2.80;99.90
69533;DHT22;56729;52.036;5.332;2023-02-28T06:45:03;2.80;99.90
69533;DHT22;56729;52.036;5.332;2023-02-28T06:46:13;2.80;99.90
69533;DHT22;56729;52.036;5.332;2023-02-28T06:47:15;2.80;99.90
69533;DHT22;56729;52.036;5.332;2023-02-28T06:48:17;2.80;99.90
69533;DHT22;56729;52.036;5.332;2023-02-28T06:49:19;2.80;99.90
69533;DHT22;56729;52.036;5.332;2023-02-28T06:50:21;2.80;99.90
69533;DHT22;56729;52.036;5.332;2023-02-28T06:51:23;2.80;99.90
69533;DHT22;56729;52.036;5.332;2023-02-28T06:52:25;2.80;99.90
69533;DHT22;56729;52.036;5.332;2023-02-28T06:53:27;2.80;99.90
69533;DHT22;56729;52.036;5.332;2023-02-28T06:54:29;2.80;99.90
69533;DHT22;56729;52.036;5.332;2023-02-28T06:55:31;2.80;99.90
69533;DHT22;56729;52.036;5.332;2023-02-28T06:56:33;2.70;99.90
69533;DHT22;56729;52.036;5.332;2023-02-28T06:57:36;2.70;99.90
69533;DHT22;56729;52.036;5.332;2023-02-28T06:58:38;2.70;99.90
69533;DHT22;56729;52.036;5.332;2023-02-28T06:59:40;2.70;99.90
69533;DHT22;56729;52.036;5.332;2023-02-28T07:00:42;2.70;99.90
69533;DHT22;56729;52.036;5.332;2023-02-28T07:01:45;2.70;99.90
69533;DHT22;56729;52.036;5.332;2023-02-28T07:02:47;2.70;99.90
69533;DHT22;56729;52.036;5.332;2023-02-28T07:03:50;2.70;99.90
69533;DHT22;56729;52.036;5.332;2023-02-28T07:04:53;2.70;99.90
69533;DHT22;56729;52.036;5.332;2023-02-28T07:05:55;2.70;99.90
69533;DHT22;56729;52.036;5.332;2023-02-28T07:07:00;2.70;99.90
69533;DHT22;56729;52.036;5.332;2023-02-28T07:08:03;2.80;99.90
69533;DHT22;56729;52.036;5.332;2023-02-28T07:09:05;2.80;99.90
69533;DHT22;56729;52.036;5.332;2023-02-28T07:10:07;2.80;99.90
69533;DHT22;56729;52.036;5.332;2023-02-28T07:11:10;2.80;99.90
69533;DHT22;56729;52.036;5.332;2023-02-28T07:12:12;2.80;99.90
69533;DHT22;56729;52.036;5.332;2023-02-28T07:13:13;2.90;99.90
69533;DHT22;56729;52.036;5.332;2023-02-28T07:14:15;2.90;99.90
69533;DHT22;56729;52.036;5.332;2023-02-28T07:15:18;2.90;99.90
69533;DHT22;56729;52.036;5.332;2023-02-28T07:16:22;2.90;99.90
69533;DHT22;56729;52.036;5.332;2023-02-28T07:17:24;2.90;99.90
69533;DHT22;56729;52.036;5.332;2023-02-28T07:18:26;3.00;99.90
69533;DHT22;56729;52.036;5.332;2023-02-28T07:19:28;2.90;99.90
69533;DHT22;56729;52.036;5.332;2023-02-28T07:20:30;3.00;99.90
69533;DHT22;56729;52.036;5.332;2023-02-28T07:21:32;3.00;99.90
69533;DHT22;56729;52.036;5.332;2023-02-28T07:22:34;3.00;99.90